createdAt,value
2022-07-27T00:01:50.912Z,9.40
2022-07-27T00:04:37.620Z,8.85
2022-07-27T00:07:40.641Z,6.72
2022-07-27T00:10:19.457Z,6.85
2022-07-27T00:36:52.186Z,10.82
2022-07-27T00:47:55.980Z,5.65
2022-07-27T00:51:09.749Z,5.28
2022-07-27T00:54:17.002Z,8.20
2022-07-27T00:57:10.099Z,4.65
2022-07-27T01:00:52.280Z,7.80
2022-07-27T01:03:37.055Z,8.60
2022-07-27T01:06:26.992Z,7.60
2022-07-27T01:09:42.130Z,6.28
2022-07-27T01:12:47.537Z,5.70
2022-07-27T01:15:35.273Z,8.13
2022-07-27T01:22:20.065Z,14.50
2022-07-27T01:25:36.221Z,7.78
2022-07-27T01:31:52.471Z,8.15
2022-07-27T01:34:56.821Z,9.15
2022-07-27T01:43:33.942Z,9.70
2022-07-27T01:49:22.008Z,6.30
2022-07-27T01:52:00.505Z,11.63
2022-07-27T01:54:49.830Z,10.05
2022-07-27T02:03:19.389Z,5.57
2022-07-27T02:08:37.183Z,11.52
2022-07-27T02:11:28.324Z,6.88
2022-07-27T02:14:05.106Z,8.80
2022-07-27T02:16:34.592Z,5.78
2022-07-27T02:19:34.039Z,5.80
2022-07-27T02:47:40.288Z,19.13
2022-07-27T02:56:06.311Z,5.45
2022-07-27T03:08:19.326Z,6.03
2022-07-27T03:11:26.118Z,4.10
2022-07-27T03:14:21.498Z,9.75
2022-07-27T03:25:30.078Z,4.38
2022-07-27T03:28:03.536Z,6.25
2022-07-27T03:30:32.714Z,7.93
2022-07-27T03:33:01.039Z,5.18
2022-07-27T03:35:29.079Z,7.50
2022-07-27T03:37:57.328Z,5.72
2022-07-27T03:40:26.169Z,7.97
2022-07-27T03:42:55.565Z,6.88
2022-07-27T03:45:23.806Z,3.92
2022-07-27T03:47:51.996Z,7.50
2022-07-27T03:50:20.746Z,7.35
2022-07-27T03:52:48.818Z,7.28
2022-07-27T03:55:17.061Z,5.43
2022-07-27T03:57:45.249Z,5.53
2022-07-27T04:00:16.087Z,8.75
2022-07-27T04:02:44.188Z,6.13
2022-07-27T04:05:12.627Z,7.03
2022-07-27T04:07:41.664Z,6.35
2022-07-27T04:10:11.047Z,5.53
2022-07-27T04:12:39.889Z,7.95
2022-07-27T04:15:10.321Z,3.88
2022-07-27T04:17:55.448Z,6.40
2022-07-27T04:20:25.028Z,6.40
2022-07-27T04:22:53.212Z,6.53
2022-07-27T04:25:22.158Z,6.30
2022-07-27T04:27:51.021Z,4.35
2022-07-27T04:30:19.220Z,5.88
2022-07-27T04:32:48.650Z,6.97
2022-07-27T04:35:16.920Z,7.47
2022-07-27T04:37:59.010Z,11.27
2022-07-27T04:40:31.114Z,5.15
2022-07-27T04:42:59.304Z,7.43
2022-07-27T04:45:27.687Z,8.57
2022-07-27T04:47:57.305Z,6.72
2022-07-27T04:50:25.615Z,7.22
2022-07-27T04:52:53.638Z,6.75
2022-07-27T04:55:21.655Z,6.20
2022-07-27T04:57:49.879Z,6.07
2022-07-27T05:00:18.794Z,4.55
2022-07-27T05:02:46.872Z,4.90
2022-07-27T05:05:16.246Z,7.53
2022-07-27T05:07:44.258Z,3.92
2022-07-27T05:10:16.581Z,6.95
2022-07-27T05:12:47.823Z,5.55
2022-07-27T05:15:16.397Z,4.65
2022-07-27T05:17:44.489Z,7.38
2022-07-27T05:20:13.800Z,8.75
2022-07-27T05:22:43.228Z,6.93
2022-07-27T05:25:12.027Z,7.32
2022-07-27T05:27:51.032Z,6.00
2022-07-27T05:30:27.704Z,5.22
2022-07-27T05:33:07.476Z,5.32
2022-07-27T05:35:35.858Z,11.52
2022-07-27T05:40:48.905Z,5.00
2022-07-27T05:43:17.302Z,3.65
2022-07-27T05:45:45.448Z,4.07
2022-07-27T05:48:13.838Z,5.95
2022-07-27T05:50:41.804Z,9.07
2022-07-27T05:53:11.126Z,5.55
2022-07-27T05:55:58.296Z,7.25
2022-07-27T05:58:28.373Z,6.93
2022-07-27T06:00:59.856Z,6.85
2022-07-27T06:03:28.645Z,7.43
2022-07-27T06:06:17.897Z,4.70
2022-07-27T06:08:52.019Z,5.68
2022-07-27T06:25:38.917Z,8.10
2022-07-27T06:28:57.484Z,5.07
2022-07-27T07:02:24.716Z,5.82
2022-07-27T07:04:54.159Z,6.35
2022-07-27T07:07:22.101Z,7.57
2022-07-27T07:09:49.989Z,2.65
2022-07-27T07:12:18.331Z,5.25
2022-07-27T07:14:46.340Z,4.05
2022-07-27T07:17:14.404Z,5.22
2022-07-27T07:19:42.198Z,4.00
2022-07-27T07:22:11.441Z,6.60
2022-07-27T07:24:39.249Z,2.92
2022-07-27T07:27:07.091Z,4.53
2022-07-27T07:29:34.993Z,6.53
2022-07-27T07:32:02.765Z,3.42
2022-07-27T07:34:30.609Z,1.88
2022-07-27T07:36:58.414Z,4.47
2022-07-27T07:39:31.323Z,3.42
2022-07-27T07:41:59.500Z,4.63
2022-07-27T07:44:27.384Z,3.35
2022-07-27T07:46:55.267Z,2.40
2022-07-27T07:49:33.340Z,3.40
2022-07-27T07:52:08.172Z,1.90
2022-07-27T07:54:37.293Z,3.65
2022-07-27T07:57:05.256Z,4.85
2022-07-27T07:59:33.114Z,3.72
2022-07-27T08:02:03.219Z,4.03
2022-07-27T08:04:31.195Z,2.10
2022-07-27T08:06:59.128Z,3.28
2022-07-27T08:09:28.387Z,2.17
2022-07-27T08:11:57.783Z,3.50
2022-07-27T08:14:26.417Z,2.03
2022-07-27T08:16:54.182Z,4.50
2022-07-27T08:19:21.990Z,1.67
2022-07-27T08:21:49.804Z,3.88
2022-07-27T08:24:17.759Z,5.10
2022-07-27T08:26:45.546Z,4.13
2022-07-27T08:29:15.205Z,4.07
2022-07-27T08:31:52.492Z,4.22
2022-07-27T08:34:21.389Z,3.15
2022-07-27T08:36:49.422Z,2.03
2022-07-27T08:42:38.555Z,4.18
2022-07-27T08:45:09.728Z,4.68
2022-07-27T08:47:45.601Z,5.40
2022-07-27T08:50:24.308Z,2.13
2022-07-27T08:52:56.847Z,3.95
2022-07-27T08:55:25.357Z,4.55
2022-07-27T08:57:54.956Z,2.97
2022-07-27T09:00:28.246Z,5.45
2022-07-27T09:02:57.244Z,4.50
2022-07-27T09:05:25.209Z,3.22
2022-07-27T09:08:10.857Z,3.88
2022-07-27T09:10:39.286Z,4.47
2022-07-27T09:13:22.065Z,4.13
2022-07-27T09:18:41.632Z,1.77
2022-07-27T09:21:15.797Z,2.78
2022-07-27T09:23:48.365Z,1.98
2022-07-27T09:34:32.230Z,2.22
2022-07-27T09:37:11.136Z,4.35
2022-07-27T09:39:39.078Z,2.92
2022-07-27T09:42:08.306Z,2.33
2022-07-27T09:44:43.035Z,4.53
2022-07-27T09:47:26.403Z,1.83
2022-07-27T09:49:57.251Z,3.60
2022-07-27T09:52:34.902Z,2.63
2022-07-27T09:55:05.254Z,3.08
2022-07-27T09:57:52.328Z,3.10
2022-07-27T10:00:22.020Z,2.03
2022-07-27T10:02:51.393Z,1.80
2022-07-27T10:05:23.795Z,3.70
2022-07-27T10:08:58.077Z,4.75
2022-07-27T10:11:28.632Z,2.47
2022-07-27T10:13:59.329Z,1.75
2022-07-27T10:16:31.652Z,2.65
2022-07-27T10:19:08.563Z,1.67
2022-07-27T10:21:38.736Z,5.70
2022-07-27T10:24:10.437Z,2.33
2022-07-27T10:26:58.627Z,3.40
2022-07-27T10:29:27.184Z,3.45
2022-07-27T10:32:00.922Z,2.53
2022-07-27T10:34:37.602Z,1.70
2022-07-27T10:37:10.456Z,1.85
2022-07-27T10:39:43.002Z,2.45
2022-07-27T10:42:29.201Z,3.40
2022-07-27T10:45:03.445Z,2.95
2022-07-27T10:47:40.392Z,1.80
2022-07-27T10:50:30.846Z,1.50
2022-07-27T10:53:02.255Z,2.05
2022-07-27T10:55:58.525Z,2.30
2022-07-27T10:58:46.539Z,2.72
2022-07-27T11:01:16.236Z,2.47
2022-07-27T11:03:52.360Z,2.05
2022-07-27T11:53:59.679Z,4.05
2022-07-27T11:57:24.286Z,6.43
2022-07-27T11:59:53.858Z,2.20
2022-07-27T12:02:22.636Z,2.67
2022-07-27T12:04:53.229Z,3.28
2022-07-27T12:07:24.040Z,3.13
2022-07-27T12:09:55.667Z,1.33
2022-07-27T12:12:25.979Z,2.35
2022-07-27T12:14:57.534Z,3.08
2022-07-27T12:17:30.858Z,3.28
2022-07-27T12:20:01.835Z,2.15
2022-07-27T12:22:32.924Z,2.67
2022-07-27T12:25:11.296Z,2.30
2022-07-27T12:27:55.188Z,2.80
2022-07-27T12:30:32.199Z,2.53
2022-07-27T12:33:00.953Z,2.47
2022-07-27T12:35:37.059Z,3.30
2022-07-27T12:38:08.920Z,4.05
2022-07-27T12:40:45.834Z,2.65
2022-07-27T12:43:18.147Z,3.50
2022-07-27T12:45:49.134Z,2.00
2022-07-27T12:48:19.452Z,3.67
2022-07-27T12:50:49.498Z,2.95
2022-07-27T12:53:18.405Z,3.78
2022-07-27T12:55:46.609Z,5.20
2022-07-27T12:58:15.315Z,4.65
2022-07-27T13:00:44.111Z,3.20
2022-07-27T13:03:13.595Z,5.10
2022-07-27T13:05:42.431Z,5.10
2022-07-27T13:08:10.927Z,4.47
2022-07-27T13:10:39.585Z,3.13
2022-07-27T13:13:09.093Z,3.08
2022-07-27T13:15:37.421Z,3.95
2022-07-27T13:18:05.531Z,4.20
2022-07-27T13:20:35.145Z,4.88
2022-07-27T13:23:03.154Z,3.30
2022-07-27T13:25:31.299Z,4.63
2022-07-27T13:27:59.426Z,3.67
2022-07-27T13:30:27.468Z,2.60
2022-07-27T13:32:55.533Z,2.83
2022-07-27T13:35:23.626Z,5.28
2022-07-27T13:37:53.546Z,3.60
2022-07-27T13:40:21.924Z,2.40
2022-07-27T13:42:50.064Z,3.88
2022-07-27T13:45:18.207Z,2.38
2022-07-27T13:47:46.454Z,2.67
2022-07-27T13:50:19.255Z,2.50
2022-07-27T13:52:48.527Z,2.33
2022-07-27T13:55:19.095Z,3.42
2022-07-27T13:57:48.100Z,2.20
2022-07-27T14:00:17.692Z,7.18
2022-07-27T14:02:46.344Z,1.63
2022-07-27T14:05:15.823Z,3.92
2022-07-27T14:07:44.863Z,2.53
2022-07-27T14:10:31.418Z,4.60
2022-07-27T14:13:07.713Z,4.60
2022-07-27T14:15:53.149Z,1.48
2022-07-27T14:18:27.472Z,5.43
2022-07-27T14:20:56.142Z,3.30
2022-07-27T14:23:26.164Z,5.60
2022-07-27T14:25:55.397Z,1.42
2022-07-27T14:28:50.348Z,2.72
2022-07-27T14:32:04.707Z,1.95
2022-07-27T14:36:08.585Z,1.48
2022-07-27T14:38:40.886Z,4.00
2022-07-27T14:46:02.569Z,3.97
2022-07-27T14:51:19.426Z,1.95
2022-07-27T14:53:47.713Z,3.17
2022-07-27T14:56:16.056Z,3.50
2022-07-27T14:58:44.784Z,2.38
2022-07-27T15:01:16.901Z,2.42
2022-07-27T15:03:46.250Z,2.95
2022-07-27T15:06:14.298Z,1.77
2022-07-27T15:08:42.377Z,3.03
2022-07-27T15:11:11.336Z,3.65
2022-07-27T15:13:40.640Z,3.80
2022-07-27T15:16:09.403Z,4.20
2022-07-27T15:18:39.919Z,2.63
2022-07-27T15:21:12.974Z,2.70
2022-07-27T15:23:48.956Z,3.33
2022-07-27T15:26:17.984Z,5.18
2022-07-27T15:28:45.979Z,4.63
2022-07-27T15:31:14.632Z,8.10
2022-07-27T15:33:45.365Z,2.03
2022-07-27T15:36:32.035Z,5.32
2022-07-27T15:39:02.607Z,1.90
2022-07-27T15:41:37.180Z,3.38
2022-07-27T15:44:05.976Z,2.47
2022-07-27T15:46:34.817Z,3.28
2022-07-27T15:49:04.840Z,3.08
2022-07-27T15:51:33.158Z,2.55
2022-07-27T15:54:01.223Z,2.65
2022-07-27T15:56:29.430Z,2.88
2022-07-27T15:58:57.542Z,3.30
2022-07-27T16:01:35.306Z,3.42
2022-07-27T16:04:06.310Z,3.33
2022-07-27T16:06:39.145Z,3.20
2022-07-27T16:12:12.219Z,3.50
2022-07-27T16:14:45.362Z,1.98
2022-07-27T16:23:55.394Z,3.88
2022-07-27T16:26:23.771Z,3.85
2022-07-27T16:28:52.967Z,5.00
2022-07-27T16:31:21.044Z,5.93
2022-07-27T16:33:54.984Z,2.72
2022-07-27T16:36:24.367Z,2.88
2022-07-27T16:38:53.361Z,5.03
2022-07-27T16:41:22.315Z,3.83
2022-07-27T16:43:50.851Z,4.20
2022-07-27T16:46:19.097Z,6.18
2022-07-27T16:48:47.848Z,7.63
2022-07-27T16:51:16.541Z,3.58
2022-07-27T16:53:47.892Z,3.75
2022-07-27T16:56:15.760Z,3.00
2022-07-27T16:58:44.381Z,8.80
2022-07-27T17:01:22.352Z,3.28
2022-07-27T17:03:58.550Z,2.97
2022-07-27T17:06:27.075Z,2.03
2022-07-27T17:08:56.594Z,3.95
2022-07-27T17:11:24.971Z,9.38
2022-07-27T17:13:58.890Z,3.60
2022-07-27T17:16:28.038Z,3.38
2022-07-27T17:18:56.532Z,2.88
2022-07-27T17:21:24.643Z,3.67
2022-07-27T17:24:21.538Z,2.97
2022-07-27T17:34:56.237Z,4.50
2022-07-27T17:37:24.007Z,3.58
2022-07-27T17:39:51.739Z,3.50
2022-07-27T17:42:19.510Z,1.65
2022-07-27T17:44:47.300Z,4.00
2022-07-27T17:47:15.230Z,2.92
2022-07-27T17:49:43.705Z,5.20
2022-07-27T17:52:12.954Z,4.00
2022-07-27T17:58:34.260Z,4.82
2022-07-27T18:01:02.749Z,6.40
2022-07-27T18:03:30.495Z,7.07
2022-07-27T18:05:58.651Z,9.38
2022-07-27T18:08:28.183Z,5.50
2022-07-27T18:10:56.144Z,7.40
2022-07-27T18:13:23.944Z,6.68
2022-07-27T18:16:08.146Z,16.30
2022-07-27T18:18:37.027Z,20.65
2022-07-27T18:21:05.750Z,19.48
2022-07-27T18:23:35.357Z,23.77
2022-07-27T18:26:03.275Z,30.65
2022-07-27T18:28:37.287Z,48.50
2022-07-27T18:31:07.616Z,48.85
2022-07-27T18:37:01.968Z,58.72
2022-07-27T18:39:32.222Z,41.17
2022-07-27T18:42:03.587Z,35.58
2022-07-27T18:44:38.444Z,43.53
2022-07-27T18:47:06.883Z,17.15
2022-07-27T18:49:34.694Z,18.00
2022-07-27T18:52:02.516Z,15.18
2022-07-27T18:54:31.614Z,16.55
2022-07-27T18:56:59.872Z,13.40
2022-07-27T18:59:27.640Z,9.82
2022-07-27T19:01:55.547Z,11.32
2022-07-27T19:04:24.789Z,10.45
2022-07-27T19:06:52.755Z,6.82
2022-07-27T19:09:21.400Z,3.55
2022-07-27T19:11:50.480Z,5.68
2022-07-27T19:14:22.747Z,5.47
2022-07-27T19:16:51.157Z,5.30
2022-07-27T19:19:23.038Z,4.28
2022-07-27T19:21:51.356Z,3.85
2022-07-27T19:24:19.593Z,4.13
2022-07-27T19:26:47.360Z,3.33
2022-07-27T19:29:17.950Z,5.32
2022-07-27T19:31:45.701Z,2.25
2022-07-27T19:34:13.715Z,3.67
2022-07-27T19:36:41.932Z,6.65
2022-07-27T19:39:10.233Z,2.97
2022-07-27T19:41:40.074Z,2.97
2022-07-27T19:44:08.557Z,3.85
2022-07-27T19:46:38.529Z,2.30
2022-07-27T19:49:06.343Z,3.55
2022-07-27T19:51:34.139Z,4.82
2022-07-27T19:54:01.921Z,5.90
2022-07-27T19:56:32.782Z,3.25
2022-07-27T19:59:04.931Z,4.22
2022-07-27T20:01:32.731Z,6.03
2022-07-27T20:04:05.227Z,4.93
2022-07-27T20:06:34.600Z,2.67
2022-07-27T20:09:02.339Z,3.17
2022-07-27T20:11:31.013Z,4.43
2022-07-27T20:13:59.239Z,3.90
2022-07-27T20:16:29.663Z,6.30
2022-07-27T20:18:57.525Z,4.35
2022-07-27T20:21:27.056Z,2.50
2022-07-27T20:23:57.317Z,3.65
2022-07-27T20:26:25.209Z,2.90
2022-07-27T20:28:53.207Z,5.90
2022-07-27T20:31:21.273Z,2.92
2022-07-27T20:33:49.190Z,4.30
2022-07-27T20:36:16.963Z,5.57
2022-07-27T20:38:46.038Z,2.35
2022-07-27T20:41:13.892Z,1.98
2022-07-27T20:43:41.740Z,4.60
2022-07-27T20:46:09.606Z,5.43
2022-07-27T20:48:38.366Z,3.33
2022-07-27T20:51:06.147Z,2.42
2022-07-27T20:53:33.974Z,2.97
2022-07-27T20:56:03.076Z,4.25
2022-07-27T20:58:31.530Z,7.18
2022-07-27T21:00:59.667Z,3.40
2022-07-27T21:03:27.936Z,3.45
2022-07-27T21:05:55.791Z,3.80
2022-07-27T21:08:23.556Z,3.72
2022-07-27T21:10:51.318Z,2.63
2022-07-27T21:13:20.610Z,4.05
2022-07-27T21:15:48.424Z,3.60
2022-07-27T21:18:16.252Z,7.90
2022-07-27T21:20:44.005Z,6.43
2022-07-27T21:23:38.026Z,4.25
2022-07-27T21:26:05.976Z,3.40
2022-07-27T21:28:36.338Z,4.00
2022-07-27T21:31:04.615Z,5.00
2022-07-27T21:33:37.577Z,3.80
2022-07-27T21:36:07.738Z,7.47
2022-07-27T21:38:35.549Z,1.73
2022-07-27T21:41:03.303Z,5.25
2022-07-27T21:43:33.052Z,2.78
2022-07-27T21:46:02.214Z,3.60
2022-07-27T21:48:30.003Z,3.22
2022-07-27T21:50:59.332Z,2.47
2022-07-27T21:53:27.112Z,2.90
2022-07-27T21:55:54.855Z,4.45
2022-07-27T21:58:29.343Z,3.95
2022-07-27T22:01:10.851Z,3.05
2022-07-27T22:04:00.471Z,2.22
2022-07-27T22:06:32.879Z,4.15
2022-07-27T22:09:01.282Z,2.78
2022-07-27T22:11:30.797Z,4.60
2022-07-27T22:14:02.932Z,2.45
2022-07-27T22:16:39.615Z,4.53
2022-07-27T22:19:07.949Z,3.53
2022-07-27T22:21:37.725Z,4.03
2022-07-27T22:24:15.954Z,2.92
2022-07-27T22:26:46.964Z,2.33
2022-07-27T22:29:14.772Z,3.55
2022-07-27T22:31:50.229Z,3.42
2022-07-27T22:34:24.226Z,2.78
2022-07-27T22:36:58.505Z,4.25
2022-07-27T22:39:26.460Z,3.30
2022-07-27T22:41:54.268Z,2.17
2022-07-27T22:44:22.453Z,2.85
2022-07-27T22:46:51.654Z,4.78
2022-07-27T22:49:19.568Z,2.60
2022-07-27T22:51:49.504Z,8.95
2022-07-27T22:54:20.777Z,4.60
2022-07-27T22:56:48.675Z,2.15
2022-07-27T22:59:16.505Z,3.13
2022-07-27T23:01:47.339Z,4.20
2022-07-27T23:04:28.389Z,6.55
2022-07-27T23:06:57.761Z,2.95
2022-07-27T23:09:27.593Z,3.65
2022-07-27T23:12:01.491Z,1.75
2022-07-27T23:14:30.575Z,4.50
2022-07-27T23:17:02.898Z,2.80
2022-07-27T23:19:32.248Z,2.75
2022-07-27T23:22:01.714Z,3.10
2022-07-27T23:24:29.814Z,2.17
2022-07-27T23:26:58.110Z,3.78
2022-07-27T23:29:26.292Z,3.10
2022-07-27T23:31:54.482Z,4.20
2022-07-27T23:34:25.393Z,1.70
2022-07-27T23:36:55.243Z,4.55
2022-07-27T23:39:24.442Z,2.42
2022-07-27T23:41:52.539Z,2.85
2022-07-27T23:44:20.382Z,4.32
2022-07-27T23:46:48.518Z,5.43
2022-07-27T23:49:16.625Z,6.68
2022-07-27T23:51:45.642Z,7.20
2022-07-27T23:54:16.285Z,4.35
2022-07-27T23:56:44.263Z,3.47
2022-07-27T23:59:12.643Z,2.28
